Time;durP1;ratioP1;P1;durP2;ratioP2;P2;SDS_P1;SDS_P2;PMS_P1;PMS_P2;Temp;Humidity;BMP_temperature;BMP_pressure;BME280_temperature;BME280_humidity;BME280_pressure;Samples;Min_cycle;Max_cycle;Signal;HPM_P1;HPM_P2
2022/08/02 00:00:38;;;;;;;4.90;2.60;;;;;;;18.52;81.73;98522.44;104614;1273;76787;-24
2022/08/02 00:03:07;;;;;;;4.20;2.80;;;;;;;18.33;82.49;98522.33;104621;1274;74445;-24
2022/08/02 00:05:34;;;;;;;2.70;2.30;;;;;;;18.05;83.89;98526.76;104648;1273;63549;-25
2022/08/02 00:08:01;;;;;;;6.30;2.00;;;;;;;17.95;84.39;98527.20;104446;1273;61728;-25
2022/08/02 00:10:29;;;;;;;3.60;2.60;;;;;;;18.32;83.15;98531.41;104676;1273;76489;-23
2022/08/02 00:12:57;;;;;;;2.20;1.80;;;;;;;18.50;81.92;98535.11;104708;1273;76177;-23
2022/08/02 00:15:25;;;;;;;2.80;2.50;;;;;;;18.52;81.60;98534.41;104804;1273;74447;-23
2022/08/02 00:17:52;;;;;;;3.40;2.60;;;;;;;18.25;82.67;98534.70;104438;1273;61900;-23
2022/08/02 00:20:19;;;;;;;2.70;2.00;;;;;;;18.07;83.53;98534.86;104638;1273;62975;-23
2022/08/02 00:22:46;;;;;;;2.40;1.90;;;;;;;18.41;82.47;98534.55;104655;1273;76367;-22
2022/08/02 00:25:14;;;;;;;3.00;2.10;;;;;;;18.54;81.21;98531.66;104599;1273;77060;-23
2022/08/02 00:27:43;;;;;;;2.60;2.30;;;;;;;18.51;81.13;98530.33;104769;1273;75433;-23
2022/08/02 00:30:11;;;;;;;2.20;2.00;;;;;;;18.24;82.21;98528.16;104417;1275;61167;-24
2022/08/02 00:32:38;;;;;;;4.40;1.60;;;;;;;18.04;83.47;98526.84;104539;1274;63084;-25
2022/08/02 00:35:07;;;;;;;3.30;1.80;;;;;;;18.31;82.34;98526.19;104715;1273;76568;-25
2022/08/02 00:37:38;;;;;;;2.20;2.00;;;;;;;18.60;81.12;98533.05;104477;1275;76890;-23
2022/08/02 00:40:07;;;;;;;2.30;2.10;;;;;;;18.61;80.37;98533.10;104662;1274;74163;-23
2022/08/02 00:42:34;;;;;;;5.10;2.30;;;;;;;18.33;81.74;98538.73;104640;1273;62336;-23
2022/08/02 00:45:02;;;;;;;4.20;1.80;;;;;;;18.14;82.87;98538.65;104693;1273;61987;-23
2022/08/02 00:47:31;;;;;;;2.80;1.70;;;;;;;18.49;81.41;98541.30;104582;1273;76635;-23
2022/08/02 00:49:58;;;;;;;3.70;1.70;;;;;;;18.67;80.30;98539.03;104583;1273;75702;-23
2022/08/02 00:52:26;;;;;;;3.30;2.00;;;;;;;18.59;80.50;98540.24;104381;1273;74388;-23
2022/08/02 00:54:53;;;;;;;5.40;2.70;;;;;;;18.34;81.45;98538.00;104546;1274;62646;-23
2022/08/02 00:57:20;;;;;;;4.60;1.40;;;;;;;18.07;82.98;98537.09;104759;1273;63057;-23
2022/08/02 00:59:48;;;;;;;2.70;2.00;;;;;;;18.46;81.64;98535.77;104585;1273;76632;-23
2022/08/02 01:02:15;;;;;;;2.20;2.00;;;;;;;18.69;80.37;98540.19;104749;1273;76975;-23
2022/08/02 01:04:44;;;;;;;3.20;2.20;;;;;;;18.62;80.32;98538.39;104831;1273;74791;-23
2022/08/02 01:07:13;;;;;;;2.40;1.80;;;;;;;18.42;81.09;98547.57;104659;1273;62825;-23
2022/08/02 01:09:41;;;;;;;1.80;1.70;;;;;;;18.20;82.24;98547.91;104776;1273;61080;-23
2022/08/02 01:12:09;;;;;;;1.90;1.70;;;;;;;18.52;81.42;98550.38;104527;1273;76858;-23
2022/08/02 01:14:39;;;;;;;1.60;1.50;;;;;;;18.71;80.10;98551.15;104967;1273;76213;-23
2022/08/02 01:17:11;;;;;;;2.40;1.80;;;;;;;18.75;79.62;98551.20;104731;1273;74507;-23
2022/08/02 01:19:53;;;;;;;2.40;2.20;;;;;;;18.57;80.28;98560.84;104434;1273;62086;-23
2022/08/02 01:22:26;;;;;;;4.70;1.30;;;;;;;18.38;81.33;98560.98;104647;1273;63247;-24
2022/08/02 01:25:18;;;;;;;3.90;2.00;;;;;;;18.96;79.52;98560.08;104685;1273;76745;-23
2022/08/02 01:27:49;;;;;;;1.70;1.50;;;;;;;19.18;77.97;98560.91;104604;1273;76459;-23
2022/08/02 01:30:16;;;;;;;3.00;2.10;;;;;;;19.05;78.17;98559.84;104583;1274;75625;-24
2022/08/02 01:32:47;;;;;;;11.30;3.00;;;;;;;18.87;78.76;98560.13;104693;1273;63091;-23
2022/08/02 01:35:37;;;;;;;2.40;2.00;;;;;;;18.59;79.95;98565.20;104591;1274;62823;-23
2022/08/02 01:38:38;;;;;;;3.90;2.80;;;;;;;18.50;80.61;98565.77;104607;1274;76916;-23
2022/08/02 01:41:07;;;;;;;2.90;1.60;;;;;;;19.08;78.90;98566.92;104726;1273;76496;-23
2022/08/02 01:43:34;;;;;;;2.10;1.90;;;;;;;19.28;77.64;98564.98;104609;1273;75505;-23
2022/08/02 01:46:01;;;;;;;3.00;1.90;;;;;;;19.09;77.89;98570.80;104626;1273;61953;-23
2022/08/02 01:48:29;;;;;;;5.10;2.00;;;;;;;18.79;79.17;98570.73;104560;1273;62810;-23
2022/08/02 01:50:56;;;;;;;2.20;1.70;;;;;;;18.56;80.18;98570.82;104604;1273;76581;-23
2022/08/02 01:53:25;;;;;;;1.60;1.50;;;;;;;18.44;80.82;98578.17;104693;1273;75961;-23
2022/08/02 01:55:53;;;;;;;2.10;1.50;;;;;;;18.87;79.58;98578.14;104637;1273;74450;-25
2022/08/02 01:58:30;;;;;;;3.40;1.70;;;;;;;19.23;77.66;98575.30;104613;1273;61930;-25
2022/08/02 02:00:57;;;;;;;2.50;1.70;;;;;;;19.20;77.81;98573.91;104656;1273;61929;-24
2022/08/02 02:03:25;;;;;;;2.50;2.00;;;;;;;19.03;78.23;98570.94;104627;1273;76633;-24
2022/08/02 02:05:54;;;;;;;4.40;2.10;;;;;;;18.72;79.69;98576.76;104770;1273;76784;-24
2022/08/02 02:08:30;;;;;;;2.00;1.70;;;;;;;18.49;80.57;98575.66;104689;1275;74375;-24
2022/08/02 02:10:58;;;;;;;2.20;2.00;;;;;;;18.84;80.03;98576.83;104391;1273;62706;-24
2022/08/02 02:13:45;;;;;;;5.70;1.90;;;;;;;19.09;78.53;98575.16;104619;1273;63123;-24
2022/08/02 02:16:12;;;;;;;3.00;1.80;;;;;;;18.98;78.67;98575.92;104632;1273;76559;-25
2022/08/02 02:18:42;;;;;;;3.10;2.00;;;;;;;18.70;80.15;98575.28;104610;1273;76809;-24
2022/08/02 02:21:11;;;;;;;2.40;1.70;;;;;;;18.48;81.36;98571.75;104421;1273;75273;-24
2022/08/02 02:23:38;;;;;;;2.10;1.90;;;;;;;18.68;81.07;98573.44;104526;1273;62984;-24
2022/08/02 02:26:07;;;;;;;2.10;1.90;;;;;;;18.91;80.22;98572.46;104620;1273;63322;-24
2022/08/02 02:28:36;;;;;;;2.60;2.00;;;;;;;18.75;80.43;98574.34;104588;1273;75378;-25
2022/08/02 02:31:10;;;;;;;2.60;2.20;;;;;;;18.46;81.99;98575.34;104703;1273;76022;-24
2022/08/02 02:33:40;;;;;;;2.60;1.50;;;;;;;18.23;83.34;98580.98;104721;1273;75351;-23
2022/08/02 02:36:08;;;;;;;7.00;1.90;;;;;;;18.59;82.21;98583.29;104678;1273;63029;-24
2022/08/02 02:38:35;;;;;;;4.30;2.10;;;;;;;18.88;80.56;98582.13;104806;1273;61815;-23
2022/08/02 02:41:03;;;;;;;2.60;2.30;;;;;;;18.72;80.62;98585.55;104993;1273;76599;-24
2022/08/02 02:43:32;;;;;;;3.30;2.20;;;;;;;18.46;81.76;98586.22;104716;1273;76974;-24
2022/08/02 02:46:01;;;;;;;4.10;1.80;;;;;;;18.25;82.89;98582.43;104826;1273;75165;-24
2022/08/02 02:48:30;;;;;;;2.90;2.20;;;;;;;18.47;82.48;98583.83;104719;1273;63162;-24
2022/08/02 02:50:58;;;;;;;6.70;2.30;;;;;;;18.71;81.18;98582.02;104730;1273;61721;-23
2022/08/02 02:53:25;;;;;;;6.00;2.60;;;;;;;18.68;81.09;98582.93;104813;1273;75533;-24
2022/08/02 02:55:52;;;;;;;3.80;2.30;;;;;;;18.45;82.01;98585.97;104471;1274;76809;-24
2022/08/02 02:58:29;;;;;;;4.20;2.30;;;;;;;18.21;83.12;98583.98;104544;1273;75414;-24
2022/08/02 03:03:43;;;;;;;3.20;1.50;;;;;;;18.47;82.91;98587.77;104652;1273;63059;-24
2022/08/02 03:06:11;;;;;;;3.00;2.10;;;;;;;18.69;81.43;98585.25;104686;1273;76529;-24
2022/08/02 03:08:42;;;;;;;3.90;2.40;;;;;;;18.55;81.77;98585.98;104882;1273;76969;-24
2022/08/02 03:11:09;;;;;;;3.00;2.50;;;;;;;18.22;83.27;98586.29;104797;1273;75368;-24
2022/08/02 03:13:37;;;;;;;1.80;1.40;;;;;;;17.94;84.73;98584.89;104677;1273;63634;-25
2022/08/02 03:16:05;;;;;;;2.90;1.90;;;;;;;18.23;84.10;98587.06;104671;1273;63076;-24
2022/08/02 03:18:33;;;;;;;3.30;2.60;;;;;;;18.47;82.76;98588.45;104746;1273;76562;-24
2022/08/02 03:21:05;;;;;;;3.80;2.40;;;;;;;18.25;83.27;98591.07;104764;1273;77257;-25
2022/08/02 03:23:33;;;;;;;2.30;2.10;;;;;;;17.94;84.96;98589.30;104638;1273;75368;-24
2022/08/02 03:26:00;;;;;;;1.80;1.50;;;;;;;17.84;85.75;98595.42;104416;1273;63613;-24
2022/08/02 03:28:28;;;;;;;2.10;1.90;;;;;;;18.12;84.42;98590.64;104599;1273;61882;-24
2022/08/02 03:30:56;;;;;;;3.30;1.90;;;;;;;18.36;83.21;98593.96;104801;1273;76172;-24
2022/08/02 03:33:23;;;;;;;4.00;2.40;;;;;;;18.24;83.39;98591.41;104645;1273;76745;-25
2022/08/02 03:35:53;;;;;;;7.20;2.40;;;;;;;17.88;85.02;98589.27;104393;1273;75351;-24
2022/08/02 03:38:21;;;;;;;4.10;1.60;;;;;;;17.85;85.79;98591.06;104597;1273;63347;-24
2022/08/02 03:40:55;;;;;;;2.10;1.80;;;;;;;18.13;84.42;98589.48;104386;1273;63048;-24
2022/08/02 03:43:22;;;;;;;4.00;2.00;;;;;;;18.31;83.51;98588.62;104680;1273;77023;-25
2022/08/02 03:45:54;;;;;;;4.50;2.60;;;;;;;18.20;83.79;98585.50;104628;1273;76818;-24
2022/08/02 03:48:21;;;;;;;2.50;2.30;;;;;;;17.96;84.93;98589.21;104568;1273;75436;-25
2022/08/02 03:51:00;;;;;;;6.00;2.20;;;;;;;17.88;85.54;98588.63;104585;1273;63545;-25
2022/08/02 03:53:27;;;;;;;2.10;1.90;;;;;;;18.25;83.77;98591.59;104606;1273;62015;-25
2022/08/02 03:55:55;;;;;;;2.60;1.90;;;;;;;18.32;82.76;98582.47;104605;1273;75347;-25
2022/08/02 03:58:23;;;;;;;2.60;2.00;;;;;;;18.24;83.24;98587.09;104533;1273;77029;-25
2022/08/02 04:00:54;;;;;;;3.20;2.20;;;;;;;18.09;84.07;98588.91;104594;1273;75354;-25
2022/08/02 04:03:23;;;;;;;3.10;1.70;;;;;;;17.99;84.71;98582.78;104636;1273;64407;-25
2022/08/02 04:05:53;;;;;;;2.30;1.90;;;;;;;18.24;83.83;98585.17;104590;1273;61875;-25
2022/08/02 04:08:32;;;;;;;1.70;1.60;;;;;;;18.50;82.30;98589.62;104745;1273;76525;-25
2022/08/02 04:13:51;;;;;;;2.50;2.20;;;;;;;18.17;83.37;98592.56;104796;1273;75474;-25
2022/08/02 04:16:46;;;;;;;6.50;1.50;;;;;;;17.94;84.88;98596.52;104820;1273;63451;-25
2022/08/02 04:19:17;;;;;;;5.90;1.80;;;;;;;18.55;82.86;98595.84;104728;1273;63047;-25
2022/08/02 04:21:45;;;;;;;2.30;1.70;;;;;;;18.74;81.47;98597.95;104588;1273;76623;-25
2022/08/02 04:24:26;;;;;;;2.30;2.00;;;;;;;18.65;81.27;98599.78;104659;1273;76126;-24
2022/08/02 04:26:55;;;;;;;3.20;2.00;;;;;;;18.39;82.33;98601.18;104650;1273;75390;-25
2022/08/02 04:29:45;;;;;;;3.10;1.80;;;;;;;18.29;83.04;98602.38;104586;1273;63490;-25
2022/08/02 04:32:13;;;;;;;2.90;1.90;;;;;;;18.54;81.82;98601.85;104736;1272;63184;-25
2022/08/02 04:34:42;;;;;;;3.30;2.30;;;;;;;18.69;81.09;98601.99;104814;1273;75868;-25
2022/08/02 04:37:29;;;;;;;3.70;2.20;;;;;;;18.52;81.37;98602.73;104633;1273;76000;-25
2022/08/02 04:39:57;;;;;;;4.00;2.70;;;;;;;18.15;82.78;98601.25;104591;1273;75149;-25
2022/08/02 04:42:25;;;;;;;2.90;1.70;;;;;;;17.96;84.00;98607.82;104576;1273;62091;-25
2022/08/02 04:44:52;;;;;;;2.20;1.90;;;;;;;18.45;82.49;98608.91;104464;1273;61171;-25
2022/08/02 04:47:20;;;;;;;2.70;2.50;;;;;;;18.73;80.71;98606.84;104764;1273;76551;-25
2022/08/02 04:50:08;;;;;;;2.90;2.20;;;;;;;18.57;80.98;98608.34;104604;1273;75975;-24
2022/08/02 04:52:35;;;;;;;2.70;2.10;;;;;;;18.46;81.34;98609.09;104445;1273;73695;-24
2022/08/02 04:55:03;;;;;;;1.90;1.50;;;;;;;18.35;82.08;98608.32;104792;1273;63649;-25
2022/08/02 05:00:19;;;;;;;3.50;2.20;;;;;;;18.96;79.27;98615.65;104608;1273;76365;-24
2022/08/02 05:02:47;;;;;;;2.50;2.00;;;;;;;19.00;79.08;98621.94;104381;1275;77015;-25
2022/08/02 05:05:15;;;;;;;2.40;1.90;;;;;;;18.85;79.38;98622.20;104634;1273;75502;-24
2022/08/02 05:07:43;;;;;;;2.80;2.10;;;;;;;18.53;80.43;98621.64;104750;1273;62912;-24
2022/08/02 05:10:10;;;;;;;3.20;1.70;;;;;;;18.41;81.26;98619.25;104360;1273;63443;-25
2022/08/02 05:12:38;;;;;;;2.30;2.10;;;;;;;18.69;79.78;98626.11;104570;1273;76349;-24
2022/08/02 05:15:10;;;;;;;2.70;1.80;;;;;;;18.90;78.37;98627.85;104369;1273;76907;-24
2022/08/02 05:17:39;;;;;;;3.60;2.40;;;;;;;18.78;78.93;98628.78;104363;1273;75636;-25
2022/08/02 05:20:15;;;;;;;2.60;2.00;;;;;;;18.57;79.92;98631.50;104690;1273;63154;-25
2022/08/02 05:22:42;;;;;;;2.00;1.60;;;;;;;18.39;80.68;98630.91;104454;1273;61992;-25
2022/08/02 05:25:10;;;;;;;3.20;1.70;;;;;;;18.77;79.39;98636.11;104632;1273;74799;-24
2022/08/02 05:27:38;;;;;;;2.10;1.90;;;;;;;19.06;77.48;98636.92;104644;1273;76710;-25
2022/08/02 05:30:09;;;;;;;2.10;1.90;;;;;;;19.12;77.28;98634.80;104752;1273;75450;-25
2022/08/02 05:32:44;;;;;;;4.60;1.90;;;;;;;18.74;78.65;98632.37;104654;1273;61734;-25
2022/08/02 05:35:11;;;;;;;2.60;1.60;;;;;;;18.52;79.61;98634.00;104389;1273;62821;-25
2022/08/02 05:37:38;;;;;;;1.40;1.30;;;;;;;18.48;80.33;98638.33;104679;1273;76577;-24
2022/08/02 05:40:09;;;;;;;3.60;1.90;;;;;;;19.03;78.33;98637.83;104637;1273;76603;-24
2022/08/02 05:42:39;;;;;;;1.90;1.70;;;;;;;19.27;77.12;98645.01;104636;1273;74407;-25
2022/08/02 05:45:08;;;;;;;2.50;2.20;;;;;;;19.14;76.77;98642.84;104381;1273;63255;-25
2022/08/02 05:47:36;;;;;;;3.20;2.00;;;;;;;18.81;77.87;98643.70;104717;1273;63088;-24
2022/08/02 05:50:07;;;;;;;3.00;2.10;;;;;;;18.55;78.64;98644.79;104684;1273;75492;-24
2022/08/02 05:52:47;;;;;;;1.90;1.40;;;;;;;18.33;79.52;98641.54;104674;1273;75824;-24
2022/08/02 05:55:18;;;;;;;2.60;2.10;;;;;;;18.75;78.02;98645.02;104575;1273;75552;-24
2022/08/02 05:58:12;;;;;;;2.30;1.80;;;;;;;18.91;76.55;98643.35;104598;1274;61704;-24
2022/08/02 06:00:41;;;;;;;2.50;1.60;;;;;;;18.86;76.73;98644.98;104385;1273;62010;-24
2022/08/02 06:03:08;;;;;;;2.10;1.90;;;;;;;18.83;77.06;98643.80;104572;1273;75620;-24
2022/08/02 06:05:39;;;;;;;2.90;1.30;;;;;;;18.66;77.98;98646.77;104588;1273;75547;-24
2022/08/02 06:08:09;;;;;;;2.30;1.50;;;;;;;19.07;76.77;98648.32;104384;1273;73401;-24
2022/08/02 06:10:37;;;;;;;1.90;1.60;;;;;;;19.52;75.35;98648.36;104643;1273;61684;-24
2022/08/02 06:13:05;;;;;;;3.30;1.60;;;;;;;19.48;74.69;98647.67;104624;1273;61858;-24
2022/08/02 06:15:33;;;;;;;2.70;1.80;;;;;;;19.35;75.52;98651.24;104707;1273;76379;-24
2022/08/02 06:18:08;;;;;;;2.20;2.00;;;;;;;19.26;76.65;98649.80;104436;1273;75939;-24
2022/08/02 06:20:36;;;;;;;3.10;1.70;;;;;;;18.95;76.34;98649.70;104626;1273;75339;-24
2022/08/02 06:23:06;;;;;;;3.10;1.30;;;;;;;19.30;75.64;98648.16;104578;1273;63241;-24
2022/08/02 06:25:41;;;;;;;2.30;1.60;;;;;;;19.71;74.21;98648.81;104615;1273;61137;-24
2022/08/02 06:28:17;;;;;;;1.50;1.30;;;;;;;19.69;73.50;98647.48;104428;1273;75305;-24
2022/08/02 06:30:45;;;;;;;2.80;1.60;;;;;;;19.58;73.29;98646.64;104326;1274;76164;-24
2022/08/02 06:33:12;;;;;;;2.10;1.70;;;;;;;19.60;73.81;98643.29;104636;1273;75400;-24
2022/08/02 06:35:55;;;;;;;1.80;1.50;;;;;;;19.69;74.60;98641.75;104560;1273;62629;-24
2022/08/02 06:38:24;;;;;;;1.30;1.20;;;;;;;19.94;74.57;98639.63;104649;1273;61688;-24
2022/08/02 06:41:11;;;;;;;3.70;1.40;;;;;;;20.47;70.79;98637.83;104709;1273;76465;-24
2022/08/02 06:43:44;;;;;;;2.00;1.20;;;;;;;20.35;69.84;98639.11;104705;1273;75968;-24
2022/08/02 06:46:12;;;;;;;5.00;1.50;;;;;;;20.09;70.19;98637.55;104882;1273;75426;-24
2022/08/02 06:49:00;;;;;;;1.30;1.20;;;;;;;20.04;70.80;98635.55;104712;1273;63217;-24
2022/08/02 06:51:27;;;;;;;2.10;1.50;;;;;;;19.95;71.07;98643.21;104727;1274;62943;-24
2022/08/02 06:53:55;;;;;;;2.80;1.30;;;;;;;20.07;71.99;98645.60;104700;1274;76502;-24
2022/08/02 06:56:22;;;;;;;2.50;1.60;;;;;;;19.97;70.90;98647.54;104581;1273;75417;-24
2022/08/02 06:58:50;;;;;;;3.90;1.40;;;;;;;20.33;70.39;98644.02;104669;1273;75387;-24
2022/08/02 07:01:18;;;;;;;2.20;1.50;;;;;;;20.68;68.84;98646.39;104837;1273;61158;-24
2022/08/02 07:03:45;;;;;;;8.40;1.50;;;;;;;20.46;68.93;98649.79;104563;1273;62069;-24
2022/08/02 07:06:13;;;;;;;1.50;1.40;;;;;;;20.14;69.66;98644.44;104565;1273;76513;-24
2022/08/02 07:08:40;;;;;;;2.50;1.30;;;;;;;20.03;69.63;98646.91;104636;1273;74863;-24
2022/08/02 07:11:21;;;;;;;2.90;1.40;;;;;;;20.05;69.58;98652.09;104665;1273;75387;-24
2022/08/02 07:13:48;;;;;;;1.30;1.10;;;;;;;20.14;70.19;98649.16;104684;1273;62803;-24
2022/08/02 07:16:15;;;;;;;2.30;1.50;;;;;;;20.14;69.89;98642.58;104612;1273;62738;-24
2022/08/02 07:18:44;;;;;;;1.90;1.20;;;;;;;20.01;69.73;98641.09;104713;1273;75373;-24
2022/08/02 07:21:12;;;;;;;3.10;1.20;;;;;;;20.28;69.51;98645.58;104639;1273;76882;-24
2022/08/02 07:23:39;;;;;;;3.30;1.40;;;;;;;20.69;67.64;98648.80;104631;1273;75535;-24
2022/08/02 07:26:07;;;;;;;1.20;1.10;;;;;;;20.95;67.42;98650.36;104362;1273;374854;-24
2022/08/02 07:28:34;;;;;;;1.70;1.00;;;;;;;21.07;67.46;98646.70;104692;1273;63111;-24
2022/08/02 07:31:01;;;;;;;1.30;1.10;;;;;;;21.06;67.29;98650.77;104369;1273;75522;-24
2022/08/02 07:33:29;;;;;;;1.40;1.30;;;;;;;20.99;66.72;98650.48;104680;1273;76679;-24
2022/08/02 07:36:07;;;;;;;2.30;1.20;;;;;;;20.75;67.03;98647.84;104567;1273;75475;-24
2022/08/02 07:38:48;;;;;;;3.70;1.50;;;;;;;20.71;67.65;98657.10;104339;1273;61527;-24
2022/08/02 07:41:16;;;;;;;4.70;1.50;;;;;;;20.78;67.83;98661.31;104627;1273;62812;-24
2022/08/02 07:43:43;;;;;;;2.00;1.40;;;;;;;20.88;67.68;98659.46;104546;1273;76566;-24
2022/08/02 07:46:11;;;;;;;1.50;1.20;;;;;;;20.81;67.41;98666.20;104727;1273;76439;-24
2022/08/02 07:48:38;;;;;;;1.40;1.30;;;;;;;20.71;67.42;98665.98;104688;1273;75429;-24
2022/08/02 07:51:09;;;;;;;4.70;1.60;;;;;;;20.64;67.56;98662.90;104692;1273;61109;-24
2022/08/02 07:53:42;;;;;;;;;;;;;;;20.33;68.24;98659.52;104979;1273;63010;-24
2022/08/02 07:56:17;;;;;;;2.40;1.40;;;;;;;20.41;68.78;98673.05;104615;1273;76868;-24
2022/08/02 07:58:45;;;;;;;1.60;1.20;;;;;;;20.42;68.19;98665.44;104591;1273;76849;-24
2022/08/02 08:01:12;;;;;;;1.40;1.10;;;;;;;20.81;66.88;98659.74;104692;1273;75414;-24
2022/08/02 08:03:40;;;;;;;1.60;1.20;;;;;;;21.01;66.94;98664.58;104708;1273;61817;-24
2022/08/02 08:06:07;;;;;;;1.70;1.40;;;;;;;21.01;66.38;98667.21;104942;1273;63043;-25
2022/08/02 08:08:34;;;;;;;1.90;1.70;;;;;;;21.02;66.73;98666.94;104633;1273;76734;-24
2022/08/02 08:11:02;;;;;;;5.80;1.20;;;;;;;20.81;67.23;98667.64;104581;1273;76859;-24
2022/08/02 08:13:31;;;;;;;1.50;1.40;;;;;;;20.81;67.43;98673.17;104648;1273;73962;-24
2022/08/02 08:15:59;;;;;;;2.10;1.40;;;;;;;20.72;67.85;98674.44;104682;1273;62983;-23
2022/08/02 08:18:26;;;;;;;1.50;1.40;;;;;;;20.63;67.91;98677.92;104638;1273;61043;-23
2022/08/02 08:20:54;;;;;;;3.60;1.00;;;;;;;20.81;68.54;98680.98;104693;1273;75164;-24
2022/08/02 08:23:21;;;;;;;4.20;1.20;;;;;;;21.28;66.29;98684.28;104547;1273;77096;-24
2022/08/02 08:25:48;;;;;;;1.90;1.30;;;;;;;21.55;64.43;98675.92;104578;1273;75417;-23
2022/08/02 08:28:16;;;;;;;2.00;1.50;;;;;;;21.61;64.57;98683.13;104601;1273;61089;-23
2022/08/02 08:30:43;;;;;;;2.10;1.40;;;;;;;21.54;64.17;98687.22;104585;1273;63134;-23
2022/08/02 08:33:10;;;;;;;2.50;1.30;;;;;;;21.36;64.50;98681.73;104550;1274;75744;-23
2022/08/02 08:35:38;;;;;;;2.60;1.60;;;;;;;21.27;64.66;98687.09;104618;1273;76750;-24
2022/08/02 08:38:05;;;;;;;1.50;1.40;;;;;;;21.42;65.38;98688.81;104651;1273;75424;-24
2022/08/02 08:40:35;;;;;;;1.80;1.40;;;;;;;21.51;64.17;98684.81;104565;1273;61179;-23
2022/08/02 08:43:03;;;;;;;2.70;1.60;;;;;;;21.38;64.13;98681.45;104529;1275;61971;-23
2022/08/02 08:45:31;;;;;;;2.30;1.50;;;;;;;21.17;64.57;98684.09;104646;1273;76593;-24
2022/08/02 08:48:12;;;;;;;1.40;1.30;;;;;;;21.17;65.15;98681.04;104593;1273;76951;-24
2022/08/02 08:50:50;;;;;;;1.90;1.50;;;;;;;21.36;65.03;98674.23;104564;1273;75426;-24
2022/08/02 08:53:17;;;;;;;1.60;1.50;;;;;;;21.38;65.35;98682.70;104591;1273;62075;-23
2022/08/02 08:55:46;;;;;;;4.10;1.30;;;;;;;21.61;64.38;98686.58;104638;1273;62996;-24
2022/08/02 08:58:13;;;;;;;2.00;1.50;;;;;;;21.88;64.74;98684.53;104617;1273;76600;-25
2022/08/02 09:00:43;;;;;;;1.50;1.40;;;;;;;21.82;63.13;98680.95;104798;1274;76143;-25
2022/08/02 09:03:10;;;;;;;1.90;1.30;;;;;;;21.75;63.83;98679.23;104574;1273;74372;-24
2022/08/02 09:05:38;;;;;;;1.40;1.30;;;;;;;21.22;64.49;98670.40;104545;1273;63184;-25
2022/08/02 09:08:06;;;;;;;1.90;1.40;;;;;;;21.05;65.02;98674.80;104743;1271;62790;-25
2022/08/02 09:10:38;;;;;;;6.70;1.60;;;;;;;21.26;65.02;98678.02;104630;1273;75560;-25
2022/08/02 09:13:06;;;;;;;4.50;2.10;;;;;;;21.35;64.83;98680.91;104726;1273;76794;-24
2022/08/02 09:16:02;;;;;;;2.20;1.50;;;;;;;21.54;64.29;98683.19;104622;1273;75361;-25
2022/08/02 09:18:38;;;;;;;3.40;1.60;;;;;;;21.68;63.32;98683.95;104423;1273;61117;-25
2022/08/02 09:21:10;;;;;;;1.20;1.10;;;;;;;21.99;62.85;98683.16;104641;1273;63043;-25
2022/08/02 09:23:38;;;;;;;4.30;1.30;;;;;;;22.26;62.45;98683.44;104642;1273;75244;-25
2022/08/02 09:26:10;;;;;;;5.60;1.30;;;;;;;21.93;62.47;98681.63;104720;1274;76831;-25
2022/08/02 09:28:41;;;;;;;1.50;1.30;;;;;;;21.91;62.36;98677.60;104407;1273;75345;-25
2022/08/02 09:31:10;;;;;;;1.90;1.60;;;;;;;21.69;62.50;98683.83;104573;1273;62065;-25
2022/08/02 09:33:38;;;;;;;4.00;1.20;;;;;;;21.88;63.00;98687.25;104865;1273;61955;-26
2022/08/02 09:36:07;;;;;;;1.50;1.40;;;;;;;21.94;62.14;98694.63;104733;1273;76699;-25
2022/08/02 09:38:35;;;;;;;5.10;1.50;;;;;;;22.02;61.73;98698.89;104699;1273;77181;-25
2022/08/02 09:41:04;;;;;;;1.40;1.30;;;;;;;22.17;62.63;98692.47;104628;1273;75223;-25
2022/08/02 09:43:42;;;;;;;1.50;1.30;;;;;;;22.01;61.64;98696.05;104580;1273;63082;-25
2022/08/02 09:46:32;;;;;;;1.60;1.10;;;;;;;22.45;61.04;98686.83;104478;1273;62764;-25
2022/08/02 09:49:13;;;;;;;2.60;1.10;;;;;;;22.79;59.74;98686.00;104368;1273;76718;-25
2022/08/02 09:51:47;;;;;;;1.20;1.10;;;;;;;22.94;58.62;98675.13;104903;1273;77142;-26
2022/08/02 09:54:27;;;;;;;2.00;1.30;;;;;;;22.98;59.48;98686.20;104727;1273;75413;-24
2022/08/02 09:56:57;;;;;;;2.70;1.20;;;;;;;23.29;58.61;98681.41;104663;1273;63244;-24
2022/08/02 09:59:25;;;;;;;1.00;0.90;;;;;;;23.69;57.87;98682.77;104649;1273;62792;-23
2022/08/02 10:01:53;;;;;;;1.90;1.00;;;;;;;23.42;56.04;98679.39;104434;1273;76600;-23
2022/08/02 10:04:42;;;;;;;1.60;1.10;;;;;;;22.92;57.45;98690.16;104588;1273;75958;-24
2022/08/02 10:07:21;;;;;;;1.80;1.10;;;;;;;23.02;58.42;98690.63;104671;1273;75372;-22
2022/08/02 10:09:49;;;;;;;2.10;1.10;;;;;;;23.39;57.16;98680.70;104613;1273;62833;-23
2022/08/02 10:12:19;;;;;;;1.70;0.80;;;;;;;23.71;55.97;98677.23;104401;1273;62987;-23
2022/08/02 10:14:47;;;;;;;1.30;1.00;;;;;;;24.07;54.81;98676.02;104537;1273;76727;-23
2022/08/02 10:17:14;;;;;;;1.70;0.90;;;;;;;23.84;54.36;98678.99;104662;1273;75966;-23
2022/08/02 10:19:41;;;;;;;1.10;1.00;;;;;;;23.62;55.40;98686.12;104408;1276;74483;-23
2022/08/02 10:22:29;;;;;;;1.20;1.00;;;;;;;23.60;55.44;98685.40;104599;1275;62068;-23
2022/08/02 10:24:56;;;;;;;1.20;1.00;;;;;;;23.58;56.44;98690.58;104945;1273;62066;-23
2022/08/02 10:27:24;;;;;;;2.30;1.10;;;;;;;23.62;56.59;98690.09;104932;1273;75211;-23
2022/08/02 10:29:53;;;;;;;3.30;1.40;;;;;;;22.87;56.53;98675.34;105104;1273;77444;-24
2022/08/02 10:32:26;;;;;;;2.00;1.00;;;;;;;22.88;58.13;98688.64;104678;1273;74342;-25
2022/08/02 10:35:01;;;;;;;1.10;1.00;;;;;;;23.02;57.25;98684.88;104629;1273;62855;-25
2022/08/02 10:37:50;;;;;;;3.60;1.10;;;;;;;22.89;57.49;98684.27;104579;1273;62798;-25
2022/08/02 10:40:25;;;;;;;1.40;1.20;;;;;;;22.64;58.34;98674.74;104654;1273;76571;-26
2022/08/02 10:43:00;;;;;;;2.90;1.10;;;;;;;22.74;59.16;98681.67;104799;1273;77312;-25
2022/08/02 10:45:28;;;;;;;1.30;1.00;;;;;;;23.00;57.40;98683.78;104672;1273;75154;-25
2022/08/02 10:48:10;;;;;;;1.80;1.20;;;;;;;23.12;57.14;98684.30;104985;1273;61259;-25
2022/08/02 10:50:43;;;;;;;1.20;1.00;;;;;;;23.05;56.41;98683.25;104645;1273;61697;-24
2022/08/02 10:53:27;;;;;;;1.50;1.00;;;;;;;23.25;57.00;98689.17;104648;1273;76599;-25
2022/08/02 10:55:58;;;;;;;3.60;1.10;;;;;;;23.73;55.59;98688.73;104582;1274;75932;-24
2022/08/02 10:58:28;;;;;;;1.70;1.20;;;;;;;23.67;56.15;98687.95;104397;1273;75700;-25
2022/08/02 11:00:56;;;;;;;1.50;1.30;;;;;;;23.12;57.93;98687.82;104578;1273;61098;-25
2022/08/02 11:03:27;;;;;;;1.60;1.30;;;;;;;23.01;59.13;98696.55;104545;1273;63515;-25
2022/08/02 11:06:11;;;;;;;2.30;1.40;;;;;;;22.89;60.28;98697.14;104684;1274;76723;-24
2022/08/02 11:09:32;;;;;;;1.30;1.20;;;;;;;22.63;59.51;98703.98;104730;1273;75840;-24
2022/08/02 11:12:08;;;;;;;3.20;1.20;;;;;;;22.25;59.64;98703.17;104646;1274;74080;-25
2022/08/02 11:14:37;;;;;;;5.80;1.40;;;;;;;22.09;59.49;98708.73;104546;1275;63358;-25
2022/08/02 11:17:15;;;;;;;3.90;1.40;;;;;;;22.08;59.30;98707.06;104598;1276;61260;-25
2022/08/02 11:20:11;;;;;;;1.70;1.10;;;;;;;22.16;60.23;98705.53;104655;1275;75322;-25
2022/08/02 11:22:39;;;;;;;1.40;1.10;;;;;;;22.30;59.76;98703.81;104614;1273;76778;-25
2022/08/02 11:25:22;;;;;;;2.80;1.20;;;;;;;22.35;58.62;98703.46;104595;1276;75375;-24
2022/08/02 11:27:55;;;;;;;1.50;1.00;;;;;;;22.47;59.26;98704.17;104567;1276;61045;-23
2022/08/02 11:30:24;;;;;;;1.30;1.20;;;;;;;22.71;59.75;98703.61;104645;1276;62455;-26
2022/08/02 11:32:57;;;;;;;1.40;1.10;;;;;;;22.77;58.61;98704.42;104546;1275;76664;-23
2022/08/02 11:35:35;;;;;;;1.20;1.10;;;;;;;22.72;57.33;98707.32;104743;1274;76994;-24
2022/08/02 11:38:17;;;;;;;1.20;1.10;;;;;;;22.55;57.55;98707.07;104738;1275;73390;-24
2022/08/02 11:40:45;;;;;;;3.00;1.30;;;;;;;22.53;57.24;98706.47;104915;1273;63293;-25
2022/08/02 11:43:23;;;;;;;1.20;1.10;;;;;;;22.52;58.35;98698.48;104524;1276;62197;-23
2022/08/02 11:45:51;;;;;;;1.80;1.20;;;;;;;22.58;58.01;98702.98;104381;1273;76657;-24
2022/08/02 11:48:29;;;;;;;1.80;1.00;;;;;;;22.72;57.62;98702.54;104637;1273;77059;-24
2022/08/02 11:51:08;;;;;;;3.00;1.10;;;;;;;22.74;57.22;98700.94;104566;1277;74777;-24